createdAt,value
2024-01-09T00:00:53.444Z,33.70
2024-01-09T00:03:20.987Z,29.00
2024-01-09T00:05:48.745Z,29.90
2024-01-09T00:08:17.679Z,35.50
2024-01-09T00:10:45.204Z,30.60
2024-01-09T00:13:12.746Z,28.00
2024-01-09T00:15:41.455Z,27.30
2024-01-09T00:18:09.096Z,27.00
2024-01-09T00:20:37.008Z,25.40
2024-01-09T00:23:05.874Z,27.90
2024-01-09T00:25:33.319Z,27.90
2024-01-09T00:28:00.978Z,28.10
2024-01-09T00:30:29.886Z,27.50
2024-01-09T00:32:57.765Z,27.20
2024-01-09T00:35:25.390Z,26.10
2024-01-09T00:37:54.482Z,29.00
2024-01-09T00:40:22.050Z,29.30
2024-01-09T00:42:49.714Z,28.80
2024-01-09T00:45:18.597Z,31.10
2024-01-09T00:47:46.278Z,33.10
2024-01-09T00:50:14.144Z,31.60
2024-01-09T00:52:43.031Z,31.30
2024-01-09T00:55:10.566Z,31.50
2024-01-09T00:57:38.231Z,30.20
2024-01-09T01:00:07.445Z,27.90
2024-01-09T01:02:35.117Z,30.40
2024-01-09T01:05:02.856Z,32.70
2024-01-09T01:07:31.739Z,30.30
2024-01-09T01:09:59.306Z,31.20
2024-01-09T01:12:26.860Z,31.80
2024-01-09T01:14:55.679Z,30.80
2024-01-09T01:17:23.341Z,26.00
2024-01-09T01:19:51.004Z,28.30
2024-01-09T01:22:20.274Z,29.80
2024-01-09T01:24:47.826Z,29.80
2024-01-09T01:27:15.496Z,30.80
2024-01-09T01:29:44.298Z,30.00
2024-01-09T01:32:11.957Z,31.00
2024-01-09T01:34:39.879Z,31.70
2024-01-09T01:37:08.796Z,29.70
2024-01-09T01:39:36.462Z,30.30
2024-01-09T01:42:05.600Z,29.70
2024-01-09T01:44:34.795Z,28.10
2024-01-09T01:47:02.531Z,28.90
2024-01-09T01:49:30.219Z,29.80
2024-01-09T01:51:59.113Z,29.00
2024-01-09T01:54:26.732Z,32.00
2024-01-09T01:56:54.340Z,30.80
2024-01-09T01:59:23.349Z,28.90
2024-01-09T02:04:18.960Z,29.20
2024-01-09T02:06:47.915Z,28.50
2024-01-09T02:09:15.667Z,29.90
2024-01-09T02:11:43.237Z,28.90
2024-01-09T02:14:12.234Z,26.40
2024-01-09T02:16:39.983Z,30.60
2024-01-09T02:19:07.661Z,29.90
2024-01-09T02:21:36.533Z,30.60
2024-01-09T02:24:04.508Z,31.30
2024-01-09T02:26:46.190Z,31.30
2024-01-09T02:29:20.955Z,31.00
2024-01-09T02:34:16.102Z,30.20
2024-01-09T02:36:45.045Z,29.80
2024-01-09T02:39:12.695Z,32.00
2024-01-09T02:41:40.611Z,29.50
2024-01-09T02:44:09.713Z,29.80
2024-01-09T02:49:05.000Z,31.40
2024-01-09T02:51:33.983Z,29.10
2024-01-09T02:54:01.649Z,28.70
2024-01-09T02:56:29.333Z,29.40
2024-01-09T02:58:58.188Z,27.50
2024-01-09T03:01:26.126Z,29.10
2024-01-09T03:03:54.014Z,30.00
2024-01-09T03:06:23.147Z,30.00
2024-01-09T03:08:50.924Z,32.10
2024-01-09T03:11:18.807Z,29.00
2024-01-09T03:13:47.652Z,32.20
2024-01-09T03:16:15.296Z,31.80
2024-01-09T03:18:42.981Z,32.00
2024-01-09T03:21:11.844Z,28.60
2024-01-09T03:23:39.919Z,27.40
2024-01-09T03:26:07.687Z,28.20
2024-01-09T03:28:36.674Z,33.80
2024-01-09T03:33:32.178Z,29.70
2024-01-09T03:36:01.097Z,28.70
2024-01-09T03:38:28.791Z,31.60
2024-01-09T03:40:56.425Z,30.60
2024-01-09T03:43:25.612Z,32.80
2024-01-09T03:45:53.073Z,32.60
2024-01-09T03:48:20.752Z,30.90
2024-01-09T03:50:49.711Z,32.70
2024-01-09T03:55:45.149Z,29.80
2024-01-09T03:58:14.041Z,27.70
2024-01-09T04:03:09.832Z,32.10
2024-01-09T04:05:38.596Z,30.20
2024-01-09T04:08:06.334Z,31.50
2024-01-09T04:10:33.997Z,31.60
2024-01-09T04:13:02.774Z,32.00
2024-01-09T04:15:30.340Z,31.10
2024-01-09T04:17:58.038Z,29.40
2024-01-09T04:20:27.126Z,32.70
2024-01-09T04:25:22.409Z,28.00
2024-01-09T04:27:51.613Z,31.40
2024-01-09T04:30:19.225Z,60.20
2024-01-09T04:32:47.012Z,71.30
2024-01-09T04:35:15.955Z,201.20
2024-01-09T04:37:43.601Z,153.70
2024-01-09T04:40:11.148Z,97.20
2024-01-09T04:42:40.049Z,87.80
2024-01-09T04:47:35.729Z,62.70
2024-01-09T04:50:04.655Z,59.00
2024-01-09T04:52:32.224Z,44.30
2024-01-09T04:54:59.770Z,49.80
2024-01-09T04:57:28.668Z,48.80
2024-01-09T05:02:23.936Z,43.60
2024-01-09T05:04:52.899Z,50.90
2024-01-09T05:07:20.937Z,42.00
2024-01-09T05:09:48.620Z,44.50
2024-01-09T05:12:17.611Z,42.60
2024-01-09T05:14:45.393Z,44.70
2024-01-09T05:17:13.167Z,46.30
2024-01-09T05:19:42.012Z,33.10
2024-01-09T05:22:09.576Z,43.20
2024-01-09T05:24:37.340Z,38.50
2024-01-09T05:27:06.135Z,40.40
2024-01-09T05:29:34.128Z,35.30
2024-01-09T05:32:01.668Z,33.10
2024-01-09T05:34:30.456Z,37.40
2024-01-09T05:36:58.002Z,37.10
2024-01-09T05:39:25.666Z,35.40
2024-01-09T05:41:54.447Z,35.60
2024-01-09T05:44:22.119Z,38.20
2024-01-09T05:46:49.670Z,39.70
2024-01-09T05:49:18.926Z,39.40
2024-01-09T05:51:46.654Z,37.90
2024-01-09T05:54:16.647Z,36.40
2024-01-09T05:56:44.288Z,37.60
2024-01-09T05:59:12.105Z,36.10
2024-01-09T06:01:41.183Z,36.70
2024-01-09T06:04:08.874Z,39.00
2024-01-09T06:06:36.847Z,33.80
2024-01-09T06:09:06.193Z,35.40
2024-01-09T06:11:33.796Z,34.00
2024-01-09T06:14:01.323Z,31.80
2024-01-09T06:16:30.210Z,30.20
2024-01-09T06:21:25.637Z,31.00
2024-01-09T06:23:54.698Z,29.00
2024-01-09T06:26:22.429Z,29.50
2024-01-09T06:28:50.067Z,33.50
2024-01-09T06:31:19.262Z,36.40
2024-01-09T06:33:46.991Z,40.00
2024-01-09T06:36:14.795Z,36.10
2024-01-09T06:38:43.857Z,41.70
2024-01-09T06:41:11.583Z,39.60
2024-01-09T06:43:39.209Z,38.50
2024-01-09T06:46:08.087Z,40.30
2024-01-09T06:48:35.819Z,46.00
2024-01-09T06:51:03.683Z,54.90
2024-01-09T06:53:32.952Z,45.60
2024-01-09T06:56:00.581Z,42.60
2024-01-09T06:58:28.137Z,40.60
2024-01-09T07:00:57.041Z,46.70
2024-01-09T07:05:52.399Z,47.10
2024-01-09T07:08:21.261Z,41.80
2024-01-09T07:10:48.933Z,45.20
2024-01-09T07:13:16.770Z,42.90
2024-01-09T07:15:45.690Z,56.00
2024-01-09T07:18:13.537Z,63.30
2024-01-09T07:20:41.323Z,62.90
2024-01-09T07:23:17.125Z,58.50
2024-01-09T07:25:50.442Z,49.60
2024-01-09T07:28:18.081Z,52.80
2024-01-09T07:30:45.680Z,58.50
2024-01-09T07:33:14.949Z,56.70
2024-01-09T07:35:42.663Z,60.20
2024-01-09T07:38:12.536Z,59.20
2024-01-09T07:40:40.288Z,79.00
2024-01-09T07:43:07.846Z,72.40
2024-01-09T07:45:36.662Z,48.60
2024-01-09T07:48:04.350Z,52.60
2024-01-09T07:50:32.211Z,56.60
2024-01-09T07:53:02.854Z,73.60
2024-01-09T07:55:31.820Z,95.30
2024-01-09T07:58:00.739Z,77.30
2024-01-09T08:00:28.513Z,72.50
2024-01-09T08:02:56.508Z,65.30
2024-01-09T08:05:25.641Z,57.30
2024-01-09T08:10:21.042Z,59.10
2024-01-09T08:12:49.924Z,64.80
2024-01-09T08:15:17.483Z,75.10
2024-01-09T08:17:45.169Z,69.40
2024-01-09T08:20:14.218Z,70.50
2024-01-09T08:22:42.217Z,74.10
2024-01-09T08:25:09.967Z,72.00
2024-01-09T08:27:38.872Z,49.10
2024-01-09T08:30:06.588Z,55.70
2024-01-09T08:32:34.784Z,64.30
2024-01-09T08:35:04.170Z,57.10
2024-01-09T08:37:31.966Z,52.00
2024-01-09T08:39:59.642Z,43.80
2024-01-09T08:42:28.924Z,40.20
2024-01-09T08:44:56.742Z,39.80
2024-01-09T08:47:24.511Z,37.40
2024-01-09T08:49:53.704Z,47.50
2024-01-09T08:52:21.313Z,40.60
2024-01-09T08:54:48.887Z,46.90
2024-01-09T08:57:17.802Z,41.10
2024-01-09T09:02:12.945Z,37.00
2024-01-09T09:04:42.301Z,35.20
2024-01-09T09:07:09.910Z,37.40
2024-01-09T09:09:37.621Z,34.90
2024-01-09T09:12:06.573Z,35.00
2024-01-09T09:17:01.928Z,37.00
2024-01-09T09:19:30.829Z,41.70
2024-01-09T09:21:58.389Z,70.30
2024-01-09T09:24:25.952Z,71.20
2024-01-09T09:26:54.883Z,50.60
2024-01-09T09:32:07.378Z,47.20
2024-01-09T09:34:35.156Z,41.70
2024-01-09T09:37:05.123Z,46.50
2024-01-09T09:39:32.685Z,32.70
2024-01-09T09:42:00.407Z,36.30
2024-01-09T09:44:29.727Z,34.80
2024-01-09T09:46:57.551Z,51.40
2024-01-09T09:51:55.373Z,64.80
2024-01-09T09:54:23.073Z,70.50
2024-01-09T09:56:51.888Z,84.70
2024-01-09T09:59:19.579Z,54.10
2024-01-09T10:01:47.383Z,64.80
2024-01-09T10:04:16.827Z,48.90
2024-01-09T10:06:44.608Z,47.70
2024-01-09T10:09:14.675Z,48.40
2024-01-09T10:11:42.370Z,43.10
2024-01-09T10:14:10.099Z,51.80
2024-01-09T10:16:38.973Z,48.10
2024-01-09T10:19:06.726Z,30.90
2024-01-09T10:21:34.403Z,34.00
2024-01-09T10:24:03.354Z,33.60
2024-01-09T10:28:58.823Z,28.50
2024-01-09T10:31:27.711Z,32.90
2024-01-09T10:33:55.635Z,15.50
2024-01-09T10:36:23.539Z,29.80
2024-01-09T10:38:52.397Z,26.70
2024-01-09T10:41:20.119Z,29.60
2024-01-09T10:43:47.857Z,31.20
2024-01-09T10:46:17.061Z,25.50
2024-01-09T10:48:44.909Z,31.70
2024-01-09T10:51:12.833Z,33.80
2024-01-09T10:53:41.914Z,40.00
2024-01-09T10:56:09.750Z,46.90
2024-01-09T10:58:37.516Z,49.20
2024-01-09T11:01:06.494Z,45.90
2024-01-09T11:03:34.500Z,33.40
2024-01-09T11:06:02.638Z,36.20
2024-01-09T11:08:31.559Z,38.70
2024-01-09T11:10:59.091Z,28.60
2024-01-09T11:13:26.654Z,27.80
2024-01-09T11:15:55.737Z,37.30
2024-01-09T11:18:23.892Z,37.90
2024-01-09T11:20:53.977Z,37.30
2024-01-09T11:23:21.645Z,39.10
2024-01-09T11:25:49.064Z,43.90
2024-01-09T11:28:17.852Z,43.90
2024-01-09T11:30:45.764Z,46.20
2024-01-09T11:33:13.559Z,44.80
2024-01-09T11:35:42.383Z,41.40
2024-01-09T11:38:09.928Z,32.60
2024-01-09T11:40:37.493Z,35.00
2024-01-09T11:43:06.377Z,32.50
2024-01-09T11:45:33.932Z,28.20
2024-01-09T11:48:01.621Z,40.60
2024-01-09T11:50:31.258Z,38.50
2024-01-09T11:52:58.969Z,21.60
2024-01-09T11:55:26.942Z,26.30
2024-01-09T11:57:55.749Z,28.90
2024-01-09T12:00:23.392Z,32.60
2024-01-09T12:02:51.007Z,39.40
2024-01-09T12:05:20.002Z,38.00
2024-01-09T12:10:21.849Z,49.40
2024-01-09T12:13:00.847Z,35.40
2024-01-09T12:15:28.398Z,35.30
2024-01-09T12:17:56.035Z,27.30
2024-01-09T12:20:25.165Z,28.50
2024-01-09T12:22:52.927Z,30.90
2024-01-09T12:25:20.584Z,28.70
2024-01-09T12:27:49.376Z,32.70
2024-01-09T12:30:17.114Z,33.70
2024-01-09T12:32:44.938Z,33.40
2024-01-09T12:35:14.123Z,55.10
2024-01-09T12:37:41.762Z,31.00
2024-01-09T12:40:09.550Z,29.10
2024-01-09T12:42:38.547Z,30.80
2024-01-09T12:47:34.035Z,33.80
2024-01-09T12:50:05.202Z,30.50
2024-01-09T12:52:33.958Z,31.90
2024-01-09T12:55:05.090Z,31.30
2024-01-09T12:57:33.442Z,30.60
2024-01-09T13:00:02.699Z,45.90
2024-01-09T13:02:30.628Z,44.80
2024-01-09T13:04:58.353Z,31.20
2024-01-09T13:07:27.321Z,25.20
2024-01-09T13:09:54.873Z,47.70
2024-01-09T13:12:22.546Z,29.10
2024-01-09T13:14:51.387Z,34.40
2024-01-09T13:17:19.135Z,37.90
2024-01-09T13:19:48.472Z,46.20
2024-01-09T13:24:48.169Z,34.60
2024-01-09T13:27:17.115Z,41.10
2024-01-09T13:32:16.456Z,44.00
2024-01-09T13:34:44.259Z,43.50
2024-01-09T13:37:12.260Z,53.40
2024-01-09T13:39:41.157Z,43.80
2024-01-09T13:42:08.811Z,43.30
2024-01-09T13:44:36.785Z,43.30
2024-01-09T13:47:05.736Z,29.90
2024-01-09T13:49:33.364Z,36.40
2024-01-09T13:52:01.040Z,37.30
2024-01-09T13:54:29.898Z,38.50
2024-01-09T13:56:57.849Z,35.60
2024-01-09T13:59:25.447Z,40.50
2024-01-09T14:01:54.492Z,36.40
2024-01-09T14:06:49.838Z,41.60
2024-01-09T14:09:18.634Z,46.90
2024-01-09T14:11:46.178Z,49.90
2024-01-09T14:14:13.888Z,56.00
2024-01-09T14:16:43.196Z,51.70
2024-01-09T14:19:11.363Z,48.60
2024-01-09T14:21:41.227Z,55.30
2024-01-09T14:24:08.786Z,52.50
2024-01-09T14:26:36.455Z,55.50
2024-01-09T14:29:05.811Z,52.20
2024-01-09T14:31:33.661Z,67.40
2024-01-09T14:34:03.824Z,87.20
2024-01-09T14:36:31.523Z,101.80
2024-01-09T14:38:59.483Z,78.80
2024-01-09T14:41:28.157Z,65.70
2024-01-09T14:43:56.069Z,53.70
2024-01-09T14:46:23.935Z,49.00
2024-01-09T14:48:53.117Z,61.70
2024-01-09T14:53:48.301Z,56.80
2024-01-09T14:56:17.426Z,62.30
2024-01-09T14:58:45.275Z,83.00
2024-01-09T15:01:12.992Z,73.50
2024-01-09T15:03:41.851Z,69.80
2024-01-09T15:06:09.617Z,70.50
2024-01-09T15:08:37.251Z,64.10
2024-01-09T15:11:06.187Z,58.10
2024-01-09T15:13:33.710Z,54.00
2024-01-09T15:16:01.255Z,56.30
2024-01-09T15:18:30.089Z,62.70
2024-01-09T15:20:58.222Z,66.60
2024-01-09T15:23:26.910Z,67.80
2024-01-09T15:25:57.143Z,71.60
2024-01-09T15:28:24.709Z,85.10
2024-01-09T15:30:52.632Z,85.90
2024-01-09T15:33:21.884Z,85.90
2024-01-09T15:35:49.412Z,74.40
2024-01-09T15:38:17.107Z,71.20
2024-01-09T15:40:46.184Z,79.30
2024-01-09T15:43:14.248Z,106.30
2024-01-09T15:45:41.797Z,78.90
2024-01-09T15:48:10.614Z,76.90
2024-01-09T15:50:38.343Z,78.00
2024-01-09T15:53:06.628Z,70.80
2024-01-09T15:55:35.629Z,73.30
2024-01-09T15:58:03.293Z,78.40
2024-01-09T16:00:30.884Z,83.50
2024-01-09T16:02:59.842Z,99.30
2024-01-09T16:05:27.517Z,92.10
2024-01-09T16:07:55.309Z,90.50
2024-01-09T16:10:24.241Z,92.00
2024-01-09T16:12:51.898Z,90.40
2024-01-09T16:15:19.485Z,80.80
2024-01-09T16:17:48.570Z,79.60
2024-01-09T16:22:44.226Z,79.70
2024-01-09T16:25:13.075Z,84.70
2024-01-09T16:27:41.049Z,90.10
2024-01-09T16:30:08.661Z,88.60
2024-01-09T16:32:37.802Z,84.10
2024-01-09T16:35:05.727Z,67.90
2024-01-09T16:37:33.473Z,50.20
2024-01-09T16:40:02.430Z,57.70
2024-01-09T16:42:30.192Z,64.10
2024-01-09T16:44:57.846Z,78.50
2024-01-09T16:47:27.168Z,83.30
2024-01-09T16:49:54.976Z,81.90
2024-01-09T16:54:52.605Z,76.10
2024-01-09T16:57:20.276Z,72.70
2024-01-09T16:59:48.936Z,76.50
2024-01-09T17:02:16.621Z,68.70
2024-01-09T17:04:44.385Z,76.60
2024-01-09T17:07:13.260Z,76.10
2024-01-09T17:09:41.247Z,68.30
2024-01-09T17:12:08.895Z,57.70
2024-01-09T17:14:37.769Z,60.80
2024-01-09T17:17:05.343Z,59.00
2024-01-09T17:19:33.067Z,50.20
2024-01-09T17:22:02.006Z,38.90
2024-01-09T17:24:31.683Z,57.80
2024-01-09T17:27:01.503Z,69.10
2024-01-09T17:29:29.159Z,62.40
2024-01-09T17:31:57.104Z,71.90
2024-01-09T17:34:26.356Z,82.80
2024-01-09T17:36:54.285Z,77.50
2024-01-09T17:39:22.068Z,82.50
2024-01-09T17:41:50.959Z,86.40
2024-01-09T17:44:18.648Z,84.70
2024-01-09T17:46:46.455Z,88.70
2024-01-09T17:49:15.474Z,84.80
2024-01-09T17:51:43.342Z,94.60
2024-01-09T17:54:10.905Z,92.00
2024-01-09T17:56:39.693Z,88.30
2024-01-09T17:59:07.425Z,76.00
2024-01-09T18:01:35.265Z,74.10
2024-01-09T18:04:04.170Z,78.80
2024-01-09T18:06:32.408Z,76.60
2024-01-09T18:09:02.404Z,80.00
2024-01-09T18:11:30.383Z,85.80
2024-01-09T18:13:58.048Z,85.20
2024-01-09T18:16:26.987Z,89.70
2024-01-09T18:18:54.981Z,88.60
2024-01-09T18:21:22.669Z,84.30
2024-01-09T18:23:51.652Z,88.80
2024-01-09T18:26:19.246Z,83.60
2024-01-09T18:28:46.930Z,84.30
2024-01-09T18:31:15.892Z,81.30
2024-01-09T18:33:43.892Z,84.10
2024-01-09T18:36:11.694Z,76.70
2024-01-09T18:38:40.485Z,86.40
2024-01-09T18:41:08.249Z,77.70
2024-01-09T18:43:36.095Z,75.80
2024-01-09T18:46:05.107Z,82.30
2024-01-09T18:48:32.692Z,81.00
2024-01-09T18:51:00.329Z,79.80
2024-01-09T18:53:29.660Z,78.00
2024-01-09T18:55:57.431Z,72.20
2024-01-09T19:00:55.318Z,61.60
2024-01-09T19:03:22.993Z,71.20
2024-01-09T19:05:51.792Z,74.20
2024-01-09T19:08:19.687Z,50.70
2024-01-09T19:10:47.473Z,45.00
2024-01-09T19:13:16.233Z,44.70
2024-01-09T19:15:44.105Z,108.10
2024-01-09T19:18:11.810Z,164.90
2024-01-09T19:20:40.772Z,159.70
2024-01-09T19:23:08.523Z,107.80
2024-01-09T19:25:36.287Z,114.80
2024-01-09T19:28:05.278Z,139.00
2024-01-09T19:30:33.348Z,140.60
2024-01-09T19:33:03.671Z,138.60
2024-01-09T19:35:31.435Z,95.10
2024-01-09T19:37:59.077Z,97.90
2024-01-09T19:40:28.528Z,96.90
2024-01-09T19:42:56.168Z,70.60
2024-01-09T19:45:26.087Z,49.00
2024-01-09T19:47:53.748Z,53.60
2024-01-09T19:50:21.551Z,56.20
2024-01-09T19:52:50.445Z,59.90
2024-01-09T19:55:18.257Z,78.80
2024-01-09T19:57:45.830Z,69.80
2024-01-09T20:00:14.714Z,98.00
2024-01-09T20:02:42.278Z,93.00
2024-01-09T20:05:09.954Z,112.10
2024-01-09T20:07:38.861Z,116.10
2024-01-09T20:12:34.368Z,60.20
2024-01-09T20:15:03.238Z,55.50
2024-01-09T20:17:30.992Z,77.10
2024-01-09T20:19:59.005Z,75.70
2024-01-09T20:22:28.214Z,64.20
2024-01-09T20:24:55.852Z,67.90
2024-01-09T20:27:23.483Z,75.00
2024-01-09T20:29:52.282Z,72.40
2024-01-09T20:32:19.935Z,54.10
2024-01-09T20:34:47.728Z,57.80
2024-01-09T20:37:16.697Z,53.60
2024-01-09T20:39:44.360Z,54.80
2024-01-09T20:42:11.912Z,59.70
2024-01-09T20:44:40.704Z,70.40
2024-01-09T20:47:08.525Z,66.00
2024-01-09T20:49:36.212Z,72.90
2024-01-09T20:52:05.330Z,66.50
2024-01-09T20:57:00.671Z,71.70
2024-01-09T20:59:29.441Z,73.20
2024-01-09T21:01:57.036Z,80.20
2024-01-09T21:04:24.706Z,61.80
2024-01-09T21:06:53.659Z,59.70
2024-01-09T21:09:21.227Z,64.60
2024-01-09T21:11:48.894Z,59.00
2024-01-09T21:14:17.817Z,57.80
2024-01-09T21:16:45.683Z,58.20
2024-01-09T21:19:13.545Z,55.70
2024-01-09T21:21:42.900Z,58.00
2024-01-09T21:24:10.460Z,96.60
2024-01-09T21:26:38.018Z,74.60
2024-01-09T21:29:07.045Z,61.80
2024-01-09T21:31:34.771Z,68.10
2024-01-09T21:34:02.609Z,61.30
2024-01-09T21:36:31.537Z,68.30
2024-01-09T21:38:59.094Z,67.50
2024-01-09T21:41:26.525Z,93.90
2024-01-09T21:43:55.906Z,111.70
2024-01-09T21:46:23.694Z,63.90
2024-01-09T21:48:53.676Z,73.70
2024-01-09T21:51:21.494Z,55.50
2024-01-09T21:53:51.612Z,56.60
2024-01-09T21:56:21.077Z,63.50
2024-01-09T21:58:49.121Z,60.20
2024-01-09T22:01:19.081Z,68.80
2024-01-09T22:03:47.127Z,69.90
2024-01-09T22:06:14.768Z,67.30
2024-01-09T22:08:43.622Z,68.50
2024-01-09T22:11:11.238Z,64.80
2024-01-09T22:13:39.105Z,61.40
2024-01-09T22:16:08.038Z,67.20
2024-01-09T22:18:35.703Z,69.90
2024-01-09T22:21:03.374Z,69.00
2024-01-09T22:23:32.263Z,82.10
2024-01-09T22:25:59.934Z,72.20
2024-01-09T22:28:27.576Z,67.40
2024-01-09T22:30:56.534Z,54.50
2024-01-09T22:35:51.803Z,83.40
2024-01-09T22:38:20.656Z,92.40
2024-01-09T22:43:16.207Z,86.40
2024-01-09T22:45:45.094Z,83.00
2024-01-09T22:48:13.026Z,75.10
2024-01-09T22:50:44.461Z,91.80
2024-01-09T22:53:14.526Z,68.00
2024-01-09T22:55:42.263Z,68.90
2024-01-09T22:58:09.958Z,75.80
2024-01-09T23:00:38.967Z,78.60
2024-01-09T23:05:34.583Z,80.70
2024-01-09T23:08:03.745Z,76.80
2024-01-09T23:10:31.905Z,67.20
2024-01-09T23:12:59.631Z,69.10
2024-01-09T23:15:28.681Z,70.30
2024-01-09T23:17:56.521Z,86.10
2024-01-09T23:20:24.406Z,68.00
2024-01-09T23:22:53.569Z,76.00
2024-01-09T23:27:48.867Z,65.70
2024-01-09T23:30:17.847Z,69.10
2024-01-09T23:32:46.101Z,69.20
2024-01-09T23:35:13.853Z,71.70
2024-01-09T23:37:42.933Z,71.70
2024-01-09T23:40:10.753Z,69.10
2024-01-09T23:42:38.411Z,70.40
2024-01-09T23:45:07.373Z,64.40
2024-01-09T23:50:02.710Z,57.40
2024-01-09T23:52:32.034Z,62.30
2024-01-09T23:54:59.578Z,55.50
2024-01-09T23:57:27.244Z,50.50
2024-01-09T23:59:55.950Z,54.60
